createdAt,value
2023-05-12T00:02:37.744Z,13.58
2023-05-12T00:06:50.204Z,13.26
2023-05-12T00:11:03.168Z,13.34
2023-05-12T00:15:15.783Z,13.18
2023-05-12T00:19:28.317Z,13.35
2023-05-12T00:23:40.872Z,13.36
2023-05-12T00:27:53.405Z,13.23
2023-05-12T00:32:07.289Z,12.91
2023-05-12T00:36:20.164Z,12.96
2023-05-12T00:40:32.732Z,13.14
2023-05-12T00:44:45.869Z,13.44
2023-05-12T00:48:59.312Z,13.27
2023-05-12T00:53:13.375Z,13.17
2023-05-12T00:57:28.291Z,13.33
2023-05-12T01:01:41.377Z,13.52
2023-05-12T01:06:15.846Z,13.21
2023-05-12T01:10:28.312Z,13.03
2023-05-12T01:14:41.808Z,12.83
2023-05-12T01:18:56.497Z,12.77
2023-05-12T01:23:09.893Z,13.13
2023-05-12T01:27:26.106Z,13.19
2023-05-12T01:31:39.612Z,13.11
2023-05-12T01:35:52.079Z,13.26
2023-05-12T01:40:05.322Z,13.08
2023-05-12T01:44:18.062Z,12.90
2023-05-12T01:48:30.820Z,13.12
2023-05-12T01:52:45.986Z,12.88
2023-05-12T01:57:01.129Z,12.73
2023-05-12T02:01:13.744Z,12.68
2023-05-12T02:05:26.688Z,12.59
2023-05-12T02:09:39.504Z,12.63
2023-05-12T02:13:52.554Z,12.54
2023-05-12T02:18:05.250Z,12.52
2023-05-12T02:22:17.882Z,12.64
2023-05-12T02:26:30.347Z,12.40
2023-05-12T02:30:51.105Z,12.65
2023-05-12T02:35:03.510Z,12.78
2023-05-12T02:39:16.141Z,12.84
2023-05-12T02:43:28.525Z,12.90
2023-05-12T02:47:41.059Z,12.72
2023-05-12T02:51:55.230Z,12.61
2023-05-12T02:56:08.433Z,12.47
2023-05-12T03:00:21.029Z,12.26
2023-05-12T03:04:34.127Z,12.23
2023-05-12T03:08:47.278Z,12.50
2023-05-12T03:12:59.780Z,12.41
2023-05-12T03:17:12.365Z,12.24
2023-05-12T03:21:24.871Z,12.29
2023-05-12T03:25:37.229Z,12.34
2023-05-12T03:29:49.716Z,12.41
2023-05-12T03:34:02.392Z,12.81
2023-05-12T03:38:14.832Z,12.60
2023-05-12T03:42:27.233Z,12.58
2023-05-12T03:46:39.675Z,12.56
2023-05-12T03:50:52.163Z,12.80
2023-05-12T03:55:07.252Z,12.94
2023-05-12T03:59:19.777Z,12.80
2023-05-12T04:03:32.375Z,12.93
2023-05-12T04:07:44.772Z,13.05
2023-05-12T04:11:57.256Z,12.93
2023-05-12T04:16:10.166Z,12.99
2023-05-12T04:20:23.317Z,13.13
2023-05-12T04:24:37.915Z,13.25
2023-05-12T04:28:50.604Z,13.33
2023-05-12T04:33:03.486Z,13.51
2023-05-12T04:37:16.538Z,13.70
2023-05-12T04:41:30.154Z,13.82
2023-05-12T04:45:44.405Z,13.95
2023-05-12T04:50:00.157Z,14.30
2023-05-12T04:54:12.800Z,14.34
2023-05-12T04:58:25.749Z,14.69
2023-05-12T05:02:38.688Z,14.77
2023-05-12T05:06:51.346Z,14.95
2023-05-12T05:11:04.691Z,15.21
2023-05-12T05:15:17.896Z,15.31
2023-05-12T05:23:48.285Z,15.36
2023-05-12T05:28:01.499Z,15.21
2023-05-12T05:32:14.240Z,15.22
2023-05-12T05:36:27.345Z,15.78
2023-05-12T05:40:52.109Z,16.04
2023-05-12T05:45:06.786Z,16.35
2023-05-12T05:49:20.383Z,16.45
2023-05-12T05:53:33.592Z,16.65
2023-05-12T05:57:46.780Z,16.93
2023-05-12T06:01:59.258Z,17.75
2023-05-12T06:06:11.703Z,18.44
2023-05-12T06:10:24.878Z,18.34
2023-05-12T06:14:37.281Z,18.49
2023-05-12T06:18:49.728Z,18.21
2023-05-12T06:23:02.405Z,18.49
2023-05-12T06:27:14.865Z,19.04
2023-05-12T06:31:27.294Z,18.84
2023-05-12T06:35:40.125Z,19.03
2023-05-12T06:39:52.589Z,19.02
2023-05-12T06:44:06.584Z,19.30
2023-05-12T06:48:18.873Z,19.52
2023-05-12T06:52:31.783Z,19.05
2023-05-12T06:56:44.510Z,19.75
2023-05-12T07:00:57.815Z,19.54
2023-05-12T07:05:10.455Z,19.61
2023-05-12T07:09:23.255Z,20.13
2023-05-12T07:13:35.817Z,21.15
2023-05-12T07:17:48.452Z,20.78
2023-05-12T07:22:00.900Z,20.52
2023-05-12T07:26:13.469Z,20.34
2023-05-12T07:30:26.019Z,21.59
2023-05-12T07:34:39.133Z,22.44
2023-05-12T07:38:51.678Z,23.09
2023-05-12T07:43:04.095Z,22.80
2023-05-12T07:47:16.482Z,22.21
2023-05-12T07:51:29.396Z,22.89
2023-05-12T07:55:43.497Z,21.36
2023-05-12T07:59:56.281Z,20.93
2023-05-12T08:04:11.283Z,22.71
2023-05-12T08:08:23.682Z,22.50
2023-05-12T08:12:36.214Z,22.73
2023-05-12T08:16:48.797Z,22.93
2023-05-12T08:21:01.313Z,22.75
2023-05-12T08:25:13.850Z,22.49
2023-05-12T08:29:26.194Z,22.49
2023-05-12T08:33:38.708Z,22.22
2023-05-12T08:37:51.215Z,22.90
2023-05-12T08:42:27.858Z,22.83
2023-05-12T08:46:41.090Z,23.38
2023-05-12T08:50:55.034Z,22.33
2023-05-12T08:55:09.724Z,23.12
2023-05-12T08:59:23.952Z,23.21
2023-05-12T09:03:36.573Z,22.86
2023-05-12T09:07:50.729Z,22.03
2023-05-12T09:12:04.343Z,21.86
2023-05-12T09:16:23.570Z,22.88
2023-05-12T09:20:36.105Z,23.51
2023-05-12T09:24:48.701Z,24.42
2023-05-12T09:29:08.708Z,23.08
2023-05-12T09:33:23.287Z,23.05
2023-05-12T09:37:35.845Z,22.85
2023-05-12T09:41:48.520Z,22.27
2023-05-12T09:46:06.408Z,22.12
2023-05-12T09:50:19.660Z,21.91
2023-05-12T09:54:33.906Z,22.18
2023-05-12T09:58:48.545Z,22.40
2023-05-12T10:03:01.832Z,22.10
2023-05-12T10:07:17.097Z,21.78
2023-05-12T10:11:30.206Z,22.13
2023-05-12T10:15:44.397Z,23.97
2023-05-12T10:19:57.671Z,23.03
2023-05-12T10:24:10.082Z,23.75
2023-05-12T10:28:22.849Z,23.88
2023-05-12T10:32:35.502Z,23.09
2023-05-12T10:36:50.537Z,22.58
2023-05-12T10:41:06.708Z,22.79
2023-05-12T10:45:20.708Z,23.88
2023-05-12T10:49:36.821Z,23.61
2023-05-12T10:53:54.891Z,23.94
2023-05-12T10:58:11.614Z,23.09
2023-05-12T11:02:32.063Z,22.62
2023-05-12T11:06:46.764Z,21.34
2023-05-12T11:10:59.742Z,20.66
2023-05-12T11:15:12.770Z,19.86
2023-05-12T11:19:25.154Z,19.62
2023-05-12T11:23:37.975Z,19.49
2023-05-12T11:27:50.894Z,19.89
2023-05-12T11:32:03.455Z,19.92
2023-05-12T11:36:21.773Z,19.75
2023-05-12T11:40:41.371Z,19.86
2023-05-12T11:44:55.704Z,19.51
2023-05-12T11:49:12.973Z,19.51
2023-05-12T11:53:26.085Z,19.54
2023-05-12T11:57:40.050Z,20.18
2023-05-12T12:01:52.562Z,20.53
2023-05-12T12:06:11.029Z,20.47
2023-05-12T12:10:23.510Z,21.65
2023-05-12T12:14:38.297Z,22.04
2023-05-12T12:18:50.921Z,20.94
2023-05-12T12:23:03.410Z,21.18
2023-05-12T12:27:16.110Z,20.67
2023-05-12T12:31:28.721Z,20.19
2023-05-12T12:35:41.727Z,19.71
2023-05-12T12:39:54.649Z,20.22
2023-05-12T12:44:07.420Z,20.23
2023-05-12T12:48:21.399Z,19.84
2023-05-12T12:52:34.098Z,18.94
2023-05-12T12:56:46.614Z,18.42
2023-05-12T13:00:59.443Z,18.03
2023-05-12T13:05:12.060Z,17.95
2023-05-12T13:09:24.740Z,18.42
2023-05-12T13:13:38.471Z,19.37
2023-05-12T13:17:51.030Z,19.83
2023-05-12T13:22:03.591Z,19.59
2023-05-12T13:26:16.121Z,20.24
2023-05-12T13:30:28.531Z,20.26
2023-05-12T13:34:41.115Z,20.57
2023-05-12T13:38:53.471Z,20.01
2023-05-12T13:43:05.905Z,21.82
2023-05-12T13:47:19.300Z,21.94
2023-05-12T13:51:32.720Z,22.98
2023-05-12T13:55:45.286Z,23.54
2023-05-12T13:59:58.849Z,22.89
2023-05-12T14:04:12.185Z,22.33
2023-05-12T14:08:24.528Z,22.29
2023-05-12T14:12:41.534Z,22.09
2023-05-12T14:16:54.411Z,22.08
2023-05-12T14:21:07.068Z,22.23
2023-05-12T14:25:19.776Z,22.05
2023-05-12T14:29:32.332Z,22.20
2023-05-12T14:33:44.785Z,22.75
2023-05-12T14:37:57.392Z,21.98
2023-05-12T14:42:09.823Z,21.86
2023-05-12T14:46:22.481Z,21.73
2023-05-12T14:50:35.050Z,21.46
2023-05-12T14:54:47.472Z,21.34
2023-05-12T14:59:00.390Z,21.79
2023-05-12T15:03:13.844Z,21.02
2023-05-12T15:07:26.396Z,21.73
2023-05-12T15:11:38.875Z,22.14
2023-05-12T15:15:55.076Z,21.57
2023-05-12T15:20:10.303Z,20.70
2023-05-12T15:24:22.675Z,20.84
2023-05-12T15:28:35.170Z,20.80
2023-05-12T15:32:47.752Z,20.61
2023-05-12T15:37:00.290Z,20.27
2023-05-12T15:41:13.005Z,20.24
2023-05-12T15:45:25.655Z,20.42
2023-05-12T15:49:37.963Z,20.33
2023-05-12T15:53:53.692Z,20.57
2023-05-12T15:58:08.485Z,19.91
2023-05-12T16:02:20.918Z,19.68
2023-05-12T16:06:33.454Z,19.86
2023-05-12T16:10:45.971Z,19.61
2023-05-12T16:14:58.394Z,20.04
2023-05-12T16:19:11.017Z,20.25
2023-05-12T16:23:23.514Z,20.09
2023-05-12T16:27:36.886Z,19.67
2023-05-12T16:31:49.557Z,19.61
2023-05-12T16:36:02.194Z,19.61
2023-05-12T16:40:15.579Z,19.37
2023-05-12T16:44:28.209Z,19.37
2023-05-12T16:48:40.540Z,19.27
2023-05-12T16:52:54.151Z,18.93
2023-05-12T16:57:06.827Z,18.58
2023-05-12T17:01:19.611Z,18.63
2023-05-12T17:05:32.128Z,18.45
2023-05-12T17:09:44.436Z,18.36
2023-05-12T17:13:56.859Z,18.36
2023-05-12T17:18:09.593Z,18.17
2023-05-12T17:22:22.360Z,18.00
2023-05-12T17:26:35.328Z,17.83
2023-05-12T17:30:48.321Z,17.70
2023-05-12T17:35:00.884Z,17.85
2023-05-12T17:39:16.252Z,17.50
2023-05-12T17:43:30.052Z,17.31
2023-05-12T17:47:43.622Z,17.28
2023-05-12T17:51:56.459Z,17.27
2023-05-12T17:56:09.010Z,17.44
2023-05-12T18:00:22.042Z,17.17
2023-05-12T18:04:35.121Z,16.99
2023-05-12T18:08:47.581Z,16.87
2023-05-12T18:13:00.040Z,17.04
2023-05-12T18:17:12.430Z,17.20
2023-05-12T18:21:25.439Z,16.91
2023-05-12T18:25:38.009Z,16.83
2023-05-12T18:29:50.491Z,16.53
2023-05-12T18:34:02.968Z,16.29
2023-05-12T18:38:15.379Z,16.21
2023-05-12T18:42:29.247Z,16.17
2023-05-12T18:46:41.725Z,16.12
2023-05-12T18:50:57.264Z,16.20
2023-05-12T18:55:09.962Z,16.17
2023-05-12T18:59:22.391Z,16.06
2023-05-12T19:03:34.826Z,16.06
2023-05-12T19:07:47.088Z,16.29
2023-05-12T19:11:59.898Z,16.12
2023-05-12T19:16:12.509Z,16.44
2023-05-12T19:20:24.996Z,16.18
2023-05-12T19:24:38.244Z,16.17
2023-05-12T19:28:50.752Z,16.05
2023-05-12T19:33:03.266Z,16.32
2023-05-12T19:37:15.755Z,15.96
2023-05-12T19:41:30.268Z,15.71
2023-05-12T19:45:42.905Z,15.68
2023-05-12T19:49:55.598Z,15.67
2023-05-12T19:54:10.326Z,15.76
2023-05-12T19:58:22.914Z,15.88
2023-05-12T20:02:35.514Z,16.09
2023-05-12T20:06:47.928Z,15.94
2023-05-12T20:11:00.333Z,16.04
2023-05-12T20:15:12.805Z,15.99
2023-05-12T20:19:25.216Z,15.90
2023-05-12T20:23:38.251Z,15.78
2023-05-12T20:27:50.725Z,15.84
2023-05-12T20:32:03.243Z,15.67
2023-05-12T20:36:15.713Z,15.42
2023-05-12T20:40:28.106Z,15.55
2023-05-12T20:44:40.989Z,15.27
2023-05-12T20:48:53.353Z,15.35
2023-05-12T20:53:05.930Z,15.26
2023-05-12T20:57:18.425Z,15.18
2023-05-12T21:01:31.237Z,15.03
2023-05-12T21:05:47.962Z,14.98
2023-05-12T21:10:00.894Z,14.88
2023-05-12T21:14:13.416Z,14.90
2023-05-12T21:18:26.147Z,14.86
2023-05-12T21:22:40.928Z,15.05
2023-05-12T21:26:53.344Z,15.31
2023-05-12T21:31:05.915Z,15.04
2023-05-12T21:35:19.058Z,14.68
2023-05-12T21:39:31.529Z,14.56
2023-05-12T21:43:43.931Z,14.49
2023-05-12T21:47:56.469Z,14.31
2023-05-12T21:52:09.659Z,14.17
2023-05-12T21:56:23.340Z,14.12
2023-05-12T22:00:35.760Z,14.09
2023-05-12T22:04:48.234Z,14.11
2023-05-12T22:09:00.905Z,14.17
2023-05-12T22:13:13.341Z,14.11
2023-05-12T22:17:25.811Z,14.01
2023-05-12T22:21:41.332Z,13.98
2023-05-12T22:25:53.875Z,13.93
2023-05-12T22:30:06.998Z,13.82
2023-05-12T22:34:19.544Z,13.82
2023-05-12T22:38:31.995Z,13.95
2023-05-12T22:42:44.448Z,13.73
2023-05-12T22:46:56.832Z,13.77
2023-05-12T22:51:09.796Z,13.77
2023-05-12T22:55:22.463Z,13.82
2023-05-12T22:59:34.855Z,13.77
2023-05-12T23:03:47.379Z,13.59
2023-05-12T23:07:59.881Z,13.54
2023-05-12T23:12:12.511Z,13.59
2023-05-12T23:16:25.942Z,13.74
2023-05-12T23:20:38.446Z,13.79
2023-05-12T23:24:52.443Z,13.76
2023-05-12T23:29:04.872Z,13.91
2023-05-12T23:33:17.660Z,13.86
2023-05-12T23:37:30.093Z,13.52
2023-05-12T23:41:42.519Z,13.40
2023-05-12T23:45:55.033Z,13.34
2023-05-12T23:50:08.130Z,13.56
2023-05-12T23:54:20.618Z,13.33
2023-05-12T23:58:33.014Z,13.38
